createdAt,value
2023-04-05T00:02:14.068Z,29.42
2023-04-05T00:04:50.217Z,33.08
2023-04-05T00:07:17.457Z,38.97
2023-04-05T00:09:43.950Z,34.30
2023-04-05T00:12:10.681Z,35.03
2023-04-05T00:14:37.184Z,33.92
2023-04-05T00:17:04.224Z,35.15
2023-04-05T00:19:34.033Z,31.08
2023-04-05T00:22:00.755Z,29.92
2023-04-05T00:24:29.414Z,32.42
2023-04-05T00:26:56.828Z,34.47
2023-04-05T00:29:23.364Z,32.38
2023-04-05T00:31:50.512Z,31.00
2023-04-05T00:34:16.993Z,34.67
2023-04-05T00:36:43.414Z,37.42
2023-04-05T00:39:09.900Z,40.53
2023-04-05T00:41:38.700Z,35.65
2023-04-05T00:44:05.943Z,35.33
2023-04-05T00:46:35.029Z,31.33
2023-04-05T00:49:01.683Z,32.30
2023-04-05T00:51:28.520Z,34.00
2023-04-05T00:53:55.389Z,33.80
2023-04-05T00:56:25.295Z,34.22
2023-04-05T00:58:54.224Z,30.88
2023-04-05T01:01:23.520Z,33.45
2023-04-05T01:03:54.075Z,32.88
2023-04-05T01:06:35.922Z,33.70
2023-04-05T01:09:08.643Z,37.30
2023-04-05T01:11:39.248Z,29.25
2023-04-05T01:14:06.240Z,35.90
2023-04-05T01:16:32.728Z,30.75
2023-04-05T01:18:59.439Z,36.80
2023-04-05T01:21:37.866Z,30.42
2023-04-05T01:24:16.499Z,30.52
2023-04-05T01:27:08.024Z,32.50
2023-04-05T01:29:56.057Z,34.25
2023-04-05T01:32:46.465Z,35.30
2023-04-05T01:35:29.604Z,33.60
2023-04-05T01:38:01.752Z,36.92
2023-04-05T01:40:29.241Z,35.42
2023-04-05T01:42:55.861Z,39.17
2023-04-05T01:45:22.320Z,33.30
2023-04-05T01:47:48.787Z,31.10
2023-04-05T01:50:15.825Z,34.75
2023-04-05T01:52:42.261Z,35.05
2023-04-05T01:55:08.852Z,34.05
2023-04-05T01:57:35.402Z,32.80
2023-04-05T02:00:01.912Z,36.78
2023-04-05T02:02:28.398Z,33.92
2023-04-05T02:04:54.861Z,34.25
2023-04-05T02:07:27.316Z,29.92
2023-04-05T02:09:53.881Z,34.47
2023-04-05T02:12:20.353Z,38.20
2023-04-05T02:14:46.754Z,33.83
2023-04-05T02:17:13.354Z,40.03
2023-04-05T02:19:45.748Z,31.88
2023-04-05T02:22:12.538Z,40.15
2023-04-05T02:24:39.021Z,38.67
2023-04-05T02:27:05.543Z,39.13
2023-04-05T02:29:31.961Z,35.33
2023-04-05T02:31:58.735Z,36.80
2023-04-05T02:34:25.848Z,32.05
2023-04-05T02:36:53.067Z,34.45
2023-04-05T02:39:19.686Z,36.83
2023-04-05T02:41:46.561Z,36.38
2023-04-05T02:44:13.653Z,36.55
2023-04-05T02:46:40.588Z,33.95
2023-04-05T02:49:09.784Z,36.75
2023-04-05T02:51:36.296Z,36.93
2023-04-05T02:54:03.372Z,32.83
2023-04-05T02:56:30.206Z,39.67
2023-04-05T02:58:56.631Z,38.60
2023-04-05T03:01:24.006Z,31.38
2023-04-05T03:03:51.035Z,38.20
2023-04-05T03:06:17.607Z,37.28
2023-04-05T03:08:44.149Z,36.83
2023-04-05T03:11:11.809Z,34.10
2023-04-05T03:13:38.726Z,33.90
2023-04-05T03:16:05.942Z,33.22
2023-04-05T03:18:32.780Z,35.35
2023-04-05T03:20:59.438Z,36.40
2023-04-05T03:23:29.667Z,33.85
2023-04-05T03:25:59.872Z,34.20
2023-04-05T03:30:53.074Z,29.40
2023-04-05T03:33:20.529Z,32.10
2023-04-05T03:35:47.689Z,34.85
2023-04-05T03:38:14.202Z,26.80
2023-04-05T03:40:40.780Z,31.50
2023-04-05T03:43:07.184Z,34.53
2023-04-05T03:45:34.082Z,36.58
2023-04-05T03:48:01.061Z,32.90
2023-04-05T03:50:27.592Z,27.33
2023-04-05T03:52:54.254Z,31.90
2023-04-05T03:55:20.869Z,36.75
2023-04-05T03:57:47.679Z,30.17
2023-04-05T04:00:14.698Z,36.38
2023-04-05T04:02:43.617Z,31.60
2023-04-05T04:05:11.254Z,32.05
2023-04-05T04:07:38.003Z,36.05
2023-04-05T04:10:05.598Z,30.70
2023-04-05T04:12:32.168Z,33.83
2023-04-05T04:14:58.909Z,35.47
2023-04-05T04:17:34.436Z,33.80
2023-04-05T04:20:01.062Z,35.35
2023-04-05T04:22:33.003Z,33.97
2023-04-05T04:25:02.674Z,36.95
2023-04-05T04:27:30.440Z,35.58
2023-04-05T04:30:01.852Z,34.60
2023-04-05T04:32:47.675Z,35.28
2023-04-05T04:35:18.214Z,40.10
2023-04-05T04:37:52.856Z,37.47
2023-04-05T04:40:19.345Z,36.25
2023-04-05T04:42:48.717Z,37.15
2023-04-05T04:45:18.079Z,35.90
2023-04-05T04:47:45.403Z,37.47
2023-04-05T04:50:12.108Z,44.20
2023-04-05T04:52:40.219Z,36.60
2023-04-05T04:55:09.182Z,33.63
2023-04-05T04:57:36.007Z,32.90
2023-04-05T05:00:02.482Z,33.40
2023-04-05T05:02:31.238Z,35.35
2023-04-05T05:04:58.240Z,35.97
2023-04-05T05:07:24.695Z,35.80
2023-04-05T05:09:52.433Z,30.45
2023-04-05T05:12:19.350Z,35.45
2023-04-05T05:14:45.737Z,33.85
2023-04-05T05:17:12.322Z,30.58
2023-04-05T05:19:38.980Z,40.40
2023-04-05T05:22:05.871Z,35.97
2023-04-05T05:24:32.449Z,43.00
2023-04-05T05:26:58.861Z,36.63
2023-04-05T05:29:25.602Z,38.30
2023-04-05T05:31:52.149Z,36.17
2023-04-05T05:34:19.298Z,37.55
2023-04-05T05:36:46.352Z,37.17
2023-04-05T05:39:12.909Z,43.80
2023-04-05T05:41:39.509Z,50.55
2023-04-05T05:44:06.764Z,45.33
2023-04-05T05:46:33.371Z,43.60
2023-04-05T05:48:59.801Z,38.45
2023-04-05T05:51:26.375Z,38.83
2023-04-05T05:53:52.819Z,36.92
2023-04-05T05:56:19.316Z,37.13
2023-04-05T05:58:46.376Z,36.50
2023-04-05T06:01:13.024Z,32.35
2023-04-05T06:03:39.641Z,30.58
2023-04-05T06:06:08.368Z,32.60
2023-04-05T06:08:34.811Z,35.45
2023-04-05T06:11:05.045Z,31.30
2023-04-05T06:15:57.950Z,30.73
2023-04-05T06:18:24.393Z,28.90
2023-04-05T06:20:50.998Z,29.80
2023-04-05T06:23:17.393Z,28.02
2023-04-05T06:25:43.973Z,32.65
2023-04-05T06:28:10.524Z,28.42
2023-04-05T06:30:37.217Z,29.85
2023-04-05T06:33:03.866Z,26.60
2023-04-05T06:35:30.588Z,22.35
2023-04-05T06:37:57.111Z,21.67
2023-04-05T06:40:23.597Z,25.65
2023-04-05T06:42:50.070Z,23.58
2023-04-05T06:45:16.725Z,25.58
2023-04-05T06:47:43.293Z,22.33
2023-04-05T06:50:10.535Z,20.88
2023-04-05T06:52:39.122Z,21.00
2023-04-05T06:55:06.435Z,23.90
2023-04-05T06:57:32.929Z,19.98
2023-04-05T06:59:59.411Z,20.80
2023-04-05T07:02:26.068Z,22.17
2023-04-05T07:04:53.315Z,19.35
2023-04-05T07:07:19.776Z,16.80
2023-04-05T07:09:46.248Z,16.48
2023-04-05T07:12:12.796Z,20.55
2023-04-05T07:14:39.454Z,16.15
2023-04-05T07:17:07.033Z,16.50
2023-04-05T07:19:33.916Z,17.33
2023-04-05T07:22:01.123Z,20.70
2023-04-05T07:24:27.583Z,16.67
2023-04-05T07:26:54.304Z,17.23
2023-04-05T07:29:20.913Z,21.33
2023-04-05T07:31:47.353Z,18.33
2023-04-05T07:34:14.044Z,18.38
2023-04-05T07:36:40.965Z,20.08
2023-04-05T07:39:07.530Z,20.52
2023-04-05T07:41:35.531Z,20.65
2023-04-05T07:44:02.084Z,21.35
2023-04-05T07:46:29.817Z,20.20
2023-04-05T07:48:56.528Z,18.58
2023-04-05T07:51:22.954Z,18.17
2023-04-05T07:53:49.392Z,20.05
2023-04-05T07:56:15.967Z,17.65
2023-04-05T07:58:42.413Z,17.50
2023-04-05T08:01:10.542Z,18.52
2023-04-05T08:03:39.652Z,17.58
2023-04-05T08:06:11.520Z,18.05
2023-04-05T08:08:40.983Z,17.30
2023-04-05T08:11:07.446Z,19.70
2023-04-05T08:13:34.019Z,19.08
2023-04-05T08:16:02.046Z,17.20
2023-04-05T08:18:29.779Z,18.08
2023-04-05T08:20:56.707Z,17.38
2023-04-05T08:23:23.164Z,17.88
2023-04-05T08:25:50.075Z,18.35
2023-04-05T08:28:16.559Z,18.50
2023-04-05T08:30:43.229Z,18.38
2023-04-05T08:33:10.036Z,18.35
2023-04-05T08:35:37.221Z,18.75
2023-04-05T08:38:04.876Z,16.40
2023-04-05T08:40:43.907Z,17.55
2023-04-05T08:43:28.515Z,17.90
2023-04-05T08:45:58.816Z,17.45
2023-04-05T08:50:55.863Z,18.13
2023-04-05T08:53:22.625Z,17.25
2023-04-05T08:55:53.624Z,19.48
2023-04-05T08:58:22.494Z,16.15
2023-04-05T09:00:50.963Z,16.27
2023-04-05T09:03:23.403Z,17.10
2023-04-05T09:05:52.913Z,16.90
2023-04-05T09:08:21.374Z,17.73
2023-04-05T09:10:50.368Z,16.85
2023-04-05T09:13:16.842Z,16.80
2023-04-05T09:15:43.887Z,16.30
2023-04-05T09:18:23.173Z,17.05
2023-04-05T09:21:03.823Z,16.58
2023-04-05T09:23:30.399Z,17.20
2023-04-05T09:25:56.967Z,16.63
2023-04-05T09:28:23.482Z,16.77
2023-04-05T09:30:49.983Z,22.30
2023-04-05T09:33:21.019Z,17.00
2023-04-05T09:35:51.392Z,17.10
2023-04-05T09:38:17.893Z,16.70
2023-04-05T09:40:46.508Z,17.45
2023-04-05T09:43:33.672Z,16.77
2023-04-05T09:46:00.454Z,16.75
2023-04-05T09:48:57.605Z,16.42
2023-04-05T09:51:24.252Z,15.98
2023-04-05T09:54:00.526Z,16.30
2023-04-05T09:56:28.486Z,15.68
2023-04-05T09:59:16.987Z,16.38
2023-04-05T10:01:51.263Z,16.27
2023-04-05T10:04:19.603Z,15.82
2023-04-05T10:06:46.081Z,16.52
2023-04-05T10:09:15.096Z,15.65
2023-04-05T10:11:43.893Z,14.48
2023-04-05T10:14:10.621Z,17.10
2023-04-05T10:17:10.276Z,17.95
2023-04-05T10:20:07.269Z,16.90
2023-04-05T10:22:39.177Z,16.00
2023-04-05T10:25:12.937Z,17.02
2023-04-05T10:27:46.973Z,16.02
2023-04-05T10:30:15.650Z,16.77
2023-04-05T10:33:01.786Z,14.25
2023-04-05T10:35:40.346Z,16.38
2023-04-05T10:38:06.904Z,15.85
2023-04-05T10:40:35.038Z,19.25
2023-04-05T10:43:03.825Z,15.70
2023-04-05T10:45:35.148Z,16.85
2023-04-05T10:48:34.222Z,16.17
2023-04-05T10:51:01.712Z,15.90
2023-04-05T10:53:30.688Z,16.48
2023-04-05T10:55:58.322Z,14.00
2023-04-05T10:58:26.856Z,15.32
2023-04-05T11:00:54.692Z,13.10
2023-04-05T11:03:51.393Z,13.23
2023-04-05T11:06:24.021Z,14.10
2023-04-05T11:08:57.065Z,14.40
2023-04-05T11:11:24.973Z,14.50
2023-04-05T11:13:56.963Z,17.65
2023-04-05T11:16:38.563Z,14.70
2023-04-05T11:19:05.243Z,15.70
2023-04-05T11:21:31.888Z,14.85
2023-04-05T11:24:08.226Z,14.57
2023-04-05T11:26:40.449Z,15.43
2023-04-05T11:29:07.847Z,16.15
2023-04-05T11:31:34.387Z,16.88
2023-04-05T11:34:12.761Z,16.08
2023-04-05T11:36:45.837Z,15.43
2023-04-05T11:39:18.387Z,13.15
2023-04-05T11:41:52.670Z,16.33
2023-04-05T11:44:19.518Z,17.65
2023-04-05T11:46:46.875Z,13.73
2023-04-05T11:49:14.231Z,14.43
2023-04-05T11:51:48.496Z,13.57
2023-04-05T11:54:27.670Z,13.30
2023-04-05T11:56:54.054Z,13.23
2023-04-05T11:59:21.548Z,12.82
2023-04-05T12:01:58.357Z,14.70
2023-04-05T12:04:24.786Z,17.27
2023-04-05T12:07:09.170Z,15.13
2023-04-05T12:09:35.871Z,14.80
2023-04-05T12:12:02.755Z,16.33
2023-04-05T12:14:29.499Z,14.90
2023-04-05T12:16:55.888Z,15.68
2023-04-05T12:19:22.893Z,14.55
2023-04-05T12:21:49.373Z,15.25
2023-04-05T12:24:15.923Z,16.05
2023-04-05T12:26:42.936Z,15.60
2023-04-05T12:29:09.419Z,15.30
2023-04-05T12:31:41.321Z,16.05
2023-04-05T12:34:09.835Z,16.35
2023-04-05T12:36:37.339Z,16.02
2023-04-05T12:39:07.780Z,16.85
2023-04-05T12:41:35.141Z,17.08
2023-04-05T12:44:27.992Z,18.63
2023-04-05T12:47:00.690Z,16.45
2023-04-05T12:49:27.807Z,15.57
2023-04-05T12:51:54.207Z,16.67
2023-04-05T12:54:23.032Z,14.50
2023-04-05T12:56:54.457Z,20.08
2023-04-05T12:59:22.056Z,16.27
2023-04-05T13:01:48.904Z,14.25
2023-04-05T13:04:16.857Z,14.57
2023-04-05T13:06:46.996Z,15.57
2023-04-05T13:09:13.454Z,13.20
2023-04-05T13:11:39.896Z,13.75
2023-04-05T13:14:06.371Z,13.57
2023-04-05T13:16:32.873Z,13.48
2023-04-05T13:19:09.196Z,13.73
2023-04-05T13:21:35.883Z,13.80
2023-04-05T13:24:02.939Z,14.93
2023-04-05T13:26:29.808Z,12.23
2023-04-05T13:28:56.281Z,12.05
2023-04-05T13:31:22.757Z,11.40
2023-04-05T13:33:49.235Z,14.02
2023-04-05T13:36:18.329Z,11.60
2023-04-05T13:38:44.732Z,13.13
2023-04-05T13:41:11.364Z,13.90
2023-04-05T13:43:37.953Z,16.23
2023-04-05T13:46:04.647Z,14.82
2023-04-05T13:48:31.371Z,15.85
2023-04-05T13:50:57.881Z,13.95
2023-04-05T13:53:26.019Z,14.73
2023-04-05T13:55:53.724Z,14.17
2023-04-05T13:58:20.311Z,14.50
2023-04-05T14:00:47.314Z,15.70
2023-04-05T14:03:13.848Z,13.73
2023-04-05T14:05:40.295Z,14.90
2023-04-05T14:08:06.935Z,18.60
2023-04-05T14:10:33.478Z,14.13
2023-04-05T14:13:00.178Z,14.40
2023-04-05T14:15:27.804Z,13.32
2023-04-05T14:17:54.362Z,12.80
2023-04-05T14:20:21.054Z,13.95
2023-04-05T14:22:47.594Z,13.48
2023-04-05T14:25:14.195Z,15.05
2023-04-05T14:27:42.414Z,13.57
2023-04-05T14:30:11.096Z,13.38
2023-04-05T14:32:37.920Z,12.77
2023-04-05T14:35:04.690Z,13.68
2023-04-05T14:37:31.225Z,13.88
2023-04-05T14:39:57.684Z,13.23
2023-04-05T14:42:31.314Z,14.27
2023-04-05T14:45:04.215Z,13.45
2023-04-05T14:47:31.097Z,13.55
2023-04-05T14:49:57.718Z,14.07
2023-04-05T14:52:24.316Z,13.63
2023-04-05T14:54:51.083Z,13.93
2023-04-05T14:57:17.649Z,13.40
2023-04-05T14:59:44.195Z,14.05
2023-04-05T15:02:11.385Z,13.55
2023-04-05T15:04:38.035Z,13.73
2023-04-05T15:07:04.504Z,13.80
2023-04-05T15:09:31.131Z,13.00
2023-04-05T15:11:57.666Z,12.57
2023-04-05T15:14:31.690Z,13.98
2023-04-05T15:16:59.001Z,13.50
2023-04-05T15:19:25.740Z,14.40
2023-04-05T15:21:52.289Z,14.40
2023-04-05T15:24:18.846Z,14.38
2023-04-05T15:26:45.442Z,13.70
2023-04-05T15:29:11.973Z,13.10
2023-04-05T15:31:39.403Z,14.02
2023-04-05T15:34:08.280Z,13.98
2023-04-05T15:36:36.157Z,13.38
2023-04-05T15:39:04.839Z,14.20
2023-04-05T15:41:33.800Z,12.73
2023-04-05T15:44:01.199Z,13.13
2023-04-05T15:46:29.147Z,13.48
2023-04-05T15:48:56.142Z,12.98
2023-04-05T15:51:22.877Z,13.85
2023-04-05T15:53:49.615Z,12.43
2023-04-05T15:56:16.201Z,14.05
2023-04-05T15:58:42.794Z,12.85
2023-04-05T16:01:09.374Z,13.02
2023-04-05T16:03:36.169Z,13.95
2023-04-05T16:06:02.895Z,13.55
2023-04-05T16:08:29.645Z,12.15
2023-04-05T16:10:57.037Z,11.65
2023-04-05T16:13:23.884Z,12.50
2023-04-05T16:15:50.565Z,11.52
2023-04-05T16:18:19.492Z,12.57
2023-04-05T16:20:45.992Z,12.45
2023-04-05T16:23:12.542Z,12.45
2023-04-05T16:25:39.057Z,12.45
2023-04-05T16:28:06.914Z,11.90
2023-04-05T16:30:33.589Z,11.85
2023-04-05T16:33:00.162Z,12.13
2023-04-05T16:35:26.669Z,14.57
2023-04-05T16:37:53.231Z,13.18
2023-04-05T16:40:19.726Z,12.73
2023-04-05T16:42:46.176Z,13.30
2023-04-05T16:45:12.640Z,12.48
2023-04-05T16:47:39.243Z,12.90
2023-04-05T16:50:06.581Z,13.13
2023-04-05T16:52:33.062Z,13.13
2023-04-05T16:54:59.613Z,12.07
2023-04-05T16:57:26.317Z,13.50
2023-04-05T16:59:53.015Z,12.70
2023-04-05T17:02:19.638Z,13.02
2023-04-05T17:04:46.960Z,13.65
2023-04-05T17:07:13.492Z,14.00
2023-04-05T17:09:39.969Z,14.32
2023-04-05T17:12:06.611Z,14.38
2023-04-05T17:14:35.748Z,14.32
2023-04-05T17:17:02.314Z,14.10
2023-04-05T17:19:28.998Z,14.05
2023-04-05T17:21:55.654Z,13.32
2023-04-05T17:24:22.368Z,13.65
2023-04-05T17:26:48.966Z,13.95
2023-04-05T17:29:17.568Z,15.35
2023-04-05T17:31:44.644Z,14.48
2023-04-05T17:34:13.421Z,14.88
2023-04-05T17:36:40.291Z,13.95
2023-04-05T17:39:07.190Z,14.93
2023-04-05T17:41:33.879Z,13.35
2023-04-05T17:44:00.400Z,13.18
2023-04-05T17:46:39.696Z,13.45
2023-04-05T17:49:08.116Z,14.07
2023-04-05T17:51:34.662Z,16.48
2023-04-05T17:54:01.432Z,14.38
2023-04-05T17:56:27.928Z,14.43
2023-04-05T17:58:54.395Z,13.68
2023-04-05T18:01:21.322Z,15.25
2023-04-05T18:03:47.981Z,13.70
2023-04-05T18:06:16.407Z,14.18
2023-04-05T18:08:42.975Z,13.95
2023-04-05T18:11:09.436Z,14.48
2023-04-05T18:13:36.148Z,13.43
2023-04-05T18:16:02.791Z,13.43
2023-04-05T18:18:29.374Z,13.82
2023-04-05T18:20:56.420Z,13.57
2023-04-05T18:23:24.775Z,14.23
2023-04-05T18:25:53.475Z,14.32
2023-04-05T18:28:23.180Z,16.63
2023-04-05T18:30:51.114Z,14.85
2023-04-05T18:33:18.251Z,15.88
2023-04-05T18:35:51.868Z,20.52
2023-04-05T18:38:19.470Z,18.58
2023-04-05T18:40:46.011Z,15.18
2023-04-05T18:43:12.796Z,16.15
2023-04-05T18:45:39.558Z,14.80
2023-04-05T18:48:06.287Z,14.75
2023-04-05T18:50:32.969Z,16.48
2023-04-05T18:52:59.461Z,17.23
2023-04-05T18:55:26.027Z,14.30
2023-04-05T18:57:52.508Z,16.77
2023-04-05T19:00:19.333Z,14.48
2023-04-05T19:02:45.898Z,14.18
2023-04-05T19:05:12.610Z,14.70
2023-04-05T19:07:39.291Z,14.52
2023-04-05T19:10:06.799Z,14.43
2023-04-05T19:12:33.307Z,15.50
2023-04-05T19:14:59.852Z,13.32
2023-04-05T19:17:26.565Z,13.18
2023-04-05T19:19:53.090Z,12.73
2023-04-05T19:22:19.522Z,13.00
2023-04-05T19:24:46.119Z,12.65
2023-04-05T19:27:12.688Z,12.95
2023-04-05T19:29:39.376Z,12.80
2023-04-05T19:32:06.934Z,13.60
2023-04-05T19:34:33.484Z,12.80
2023-04-05T19:37:00.858Z,12.30
2023-04-05T19:39:27.509Z,12.75
2023-04-05T19:41:54.059Z,14.40
2023-04-05T19:44:48.589Z,14.90
2023-04-05T19:47:18.472Z,19.55
2023-04-05T19:49:45.389Z,17.35
2023-04-05T19:52:33.364Z,14.85
2023-04-05T19:55:00.344Z,14.85
2023-04-05T19:57:27.780Z,17.67
2023-04-05T19:59:54.649Z,16.70
2023-04-05T20:02:37.089Z,19.05
2023-04-05T20:05:33.977Z,18.50
2023-04-05T20:08:00.532Z,22.42
2023-04-05T20:10:41.117Z,18.95
2023-04-05T20:13:08.280Z,19.52
2023-04-05T20:15:37.000Z,19.67
2023-04-05T20:18:08.701Z,23.98
2023-04-05T20:20:36.458Z,19.08
2023-04-05T20:23:06.946Z,18.27
2023-04-05T20:25:43.169Z,16.60
2023-04-05T20:28:36.445Z,15.48
2023-04-05T20:31:06.999Z,15.55
2023-04-05T20:33:44.251Z,16.77
2023-04-05T20:36:17.546Z,16.90
2023-04-05T20:38:45.934Z,18.83
2023-04-05T20:41:13.936Z,16.83
2023-04-05T20:43:41.883Z,15.18
2023-04-05T20:46:08.645Z,15.23
2023-04-05T20:48:36.411Z,16.10
2023-04-05T20:51:06.934Z,15.75
2023-04-05T20:53:34.165Z,18.27
2023-04-05T20:56:00.692Z,16.08
2023-04-05T20:58:27.796Z,14.95
2023-04-05T21:00:54.949Z,15.25
2023-04-05T21:03:21.985Z,14.45
2023-04-05T21:05:48.967Z,15.50
2023-04-05T21:08:16.261Z,15.18
2023-04-05T21:10:42.851Z,15.85
2023-04-05T21:13:09.354Z,17.67
2023-04-05T21:15:36.116Z,14.40
2023-04-05T21:18:04.445Z,14.93
2023-04-05T21:20:31.605Z,18.15
2023-04-05T21:22:58.779Z,14.48
2023-04-05T21:25:25.550Z,14.77
2023-04-05T21:27:52.243Z,15.90
2023-04-05T21:30:18.934Z,15.35
2023-04-05T21:32:45.515Z,17.63
2023-04-05T21:35:12.165Z,16.23
2023-04-05T21:37:38.705Z,15.70
2023-04-05T21:40:05.826Z,15.13
2023-04-05T21:42:32.946Z,17.83
2023-04-05T21:44:59.612Z,23.38
2023-04-05T21:47:26.087Z,16.85
2023-04-05T21:49:52.849Z,17.98
2023-04-05T21:52:19.419Z,18.85
2023-04-05T21:54:46.309Z,18.48
2023-04-05T21:57:12.808Z,15.85
2023-04-05T21:59:39.441Z,16.42
2023-04-05T22:02:07.378Z,24.25
2023-04-05T22:04:34.878Z,16.70
2023-04-05T22:07:01.330Z,19.42
2023-04-05T22:09:31.561Z,19.83
2023-04-05T22:14:26.365Z,18.17
2023-04-05T22:16:53.439Z,17.67
2023-04-05T22:19:21.277Z,15.25
2023-04-05T22:21:47.931Z,16.67
2023-04-05T22:24:14.801Z,18.58
2023-04-05T22:26:42.221Z,18.00
2023-04-05T22:29:08.952Z,15.90
2023-04-05T22:31:35.985Z,15.38
2023-04-05T22:34:02.493Z,20.67
2023-04-05T22:36:29.057Z,16.15
2023-04-05T22:38:55.817Z,17.55
2023-04-05T22:41:22.278Z,17.70
2023-04-05T22:43:48.802Z,17.33
2023-04-05T22:46:15.346Z,17.80
2023-04-05T22:48:44.321Z,20.48
2023-04-05T22:51:11.165Z,19.58
2023-04-05T22:53:37.663Z,26.48
2023-04-05T22:56:04.230Z,20.83
2023-04-05T22:58:32.714Z,22.65
2023-04-05T23:00:59.633Z,19.65
2023-04-05T23:03:26.545Z,20.20
2023-04-05T23:05:52.987Z,20.75
2023-04-05T23:08:19.491Z,22.05
2023-04-05T23:10:47.000Z,19.88
2023-04-05T23:13:13.530Z,19.35
2023-04-05T23:15:40.070Z,18.13
2023-04-05T23:18:06.668Z,17.60
2023-04-05T23:20:33.130Z,17.05
2023-04-05T23:23:00.207Z,24.45
2023-04-05T23:25:26.786Z,18.58
2023-04-05T23:27:54.455Z,19.25
2023-04-05T23:30:21.112Z,18.25
2023-04-05T23:32:47.629Z,17.27
2023-04-05T23:35:15.395Z,20.17
2023-04-05T23:37:41.873Z,17.25
2023-04-05T23:40:09.011Z,17.45
2023-04-05T23:42:35.475Z,16.88
2023-04-05T23:45:04.176Z,16.20
2023-04-05T23:47:30.902Z,19.83
2023-04-05T23:49:57.452Z,17.67
2023-04-05T23:52:23.954Z,18.85
2023-04-05T23:54:50.656Z,23.23
2023-04-05T23:57:17.145Z,17.27
2023-04-05T23:59:43.683Z,19.23
